sensor_id;sensor_type;location;lat;lon;timestamp;P1;durP1;ratioP1;P2;durP2;ratioP2
75038;SDS011;63609;49.992;14.512;2024-03-08T00:00:16;39.08;;;17.13;;
75038;SDS011;63609;49.992;14.512;2024-03-08T00:02:47;38.30;;;16.27;;
75038;SDS011;63609;49.992;14.512;2024-03-08T00:05:17;39.63;;;16.77;;
75038;SDS011;63609;49.992;14.512;2024-03-08T00:07:44;36.00;;;16.23;;
75038;SDS011;63609;49.992;14.512;2024-03-08T00:10:12;33.65;;;15.55;;
75038;SDS011;63609;49.992;14.512;2024-03-08T00:12:45;36.97;;;17.05;;
75038;SDS011;63609;49.992;14.512;2024-03-08T00:15:14;39.55;;;16.55;;
75038;SDS011;63609;49.992;14.512;2024-03-08T00:17:44;39.47;;;16.60;;
75038;SDS011;63609;49.992;14.512;2024-03-08T00:20:12;41.25;;;15.73;;
75038;SDS011;63609;49.992;14.512;2024-03-08T00:22:41;38.00;;;15.98;;
75038;SDS011;63609;49.992;14.512;2024-03-08T00:25:08;36.80;;;17.05;;
75038;SDS011;63609;49.992;14.512;2024-03-08T00:27:36;40.72;;;17.73;;
75038;SDS011;63609;49.992;14.512;2024-03-08T00:30:03;38.10;;;17.73;;
75038;SDS011;63609;49.992;14.512;2024-03-08T00:32:32;39.50;;;17.23;;
75038;SDS011;63609;49.992;14.512;2024-03-08T00:34:59;40.95;;;15.27;;
75038;SDS011;63609;49.992;14.512;2024-03-08T00:39:53;41.50;;;16.27;;
75038;SDS011;63609;49.992;14.512;2024-03-08T00:42:20;38.20;;;16.08;;
75038;SDS011;63609;49.992;14.512;2024-03-08T00:44:47;41.58;;;17.27;;
75038;SDS011;63609;49.992;14.512;2024-03-08T00:47:18;37.08;;;16.15;;
75038;SDS011;63609;49.992;14.512;2024-03-08T00:49:45;42.97;;;17.25;;
75038;SDS011;63609;49.992;14.512;2024-03-08T00:52:13;36.72;;;16.42;;
75038;SDS011;63609;49.992;14.512;2024-03-08T00:54:41;36.28;;;15.98;;
75038;SDS011;63609;49.992;14.512;2024-03-08T00:57:10;37.70;;;16.60;;
75038;SDS011;63609;49.992;14.512;2024-03-08T00:59:37;37.72;;;16.90;;
75038;SDS011;63609;49.992;14.512;2024-03-08T01:03:31;35.50;;;16.15;;
75038;SDS011;63609;49.992;14.512;2024-03-08T01:05:58;44.97;;;17.52;;
75038;SDS011;63609;49.992;14.512;2024-03-08T01:08:27;39.13;;;18.10;;
75038;SDS011;63609;49.992;14.512;2024-03-08T01:10:55;40.38;;;17.23;;
75038;SDS011;63609;49.992;14.512;2024-03-08T01:13:22;43.17;;;16.88;;
75038;SDS011;63609;49.992;14.512;2024-03-08T01:15:49;41.05;;;17.42;;
75038;SDS011;63609;49.992;14.512;2024-03-08T01:18:16;42.85;;;17.88;;
75038;SDS011;63609;49.992;14.512;2024-03-08T01:20:43;40.50;;;16.00;;
75038;SDS011;63609;49.992;14.512;2024-03-08T01:23:11;39.60;;;19.13;;
75038;SDS011;63609;49.992;14.512;2024-03-08T01:25:37;40.38;;;15.82;;
75038;SDS011;63609;49.992;14.512;2024-03-08T01:28:05;45.35;;;18.60;;
75038;SDS011;63609;49.992;14.512;2024-03-08T01:30:35;37.95;;;16.92;;
75038;SDS011;63609;49.992;14.512;2024-03-08T01:33:03;42.08;;;17.45;;
75038;SDS011;63609;49.992;14.512;2024-03-08T01:35:31;43.28;;;17.85;;
75038;SDS011;63609;49.992;14.512;2024-03-08T01:37:58;41.45;;;16.75;;
75038;SDS011;63609;49.992;14.512;2024-03-08T01:40:25;39.97;;;17.58;;
75038;SDS011;63609;49.992;14.512;2024-03-08T01:45:19;34.90;;;14.80;;
75038;SDS011;63609;49.992;14.512;2024-03-08T01:47:47;42.10;;;17.58;;
75038;SDS011;63609;49.992;14.512;2024-03-08T01:50:15;41.47;;;17.17;;
75038;SDS011;63609;49.992;14.512;2024-03-08T01:52:44;38.15;;;15.63;;
75038;SDS011;63609;49.992;14.512;2024-03-08T01:55:12;42.67;;;16.77;;
75038;SDS011;63609;49.992;14.512;2024-03-08T01:57:42;43.95;;;17.50;;
75038;SDS011;63609;49.992;14.512;2024-03-08T02:00:09;42.28;;;18.55;;
75038;SDS011;63609;49.992;14.512;2024-03-08T02:02:38;36.58;;;16.90;;
75038;SDS011;63609;49.992;14.512;2024-03-08T02:05:10;39.85;;;15.85;;
75038;SDS011;63609;49.992;14.512;2024-03-08T02:07:40;44.30;;;18.02;;
75038;SDS011;63609;49.992;14.512;2024-03-08T02:10:11;44.20;;;18.52;;
75038;SDS011;63609;49.992;14.512;2024-03-08T02:12:39;49.92;;;19.08;;
75038;SDS011;63609;49.992;14.512;2024-03-08T02:17:33;38.63;;;15.32;;
75038;SDS011;63609;49.992;14.512;2024-03-08T02:20:00;43.08;;;17.40;;
75038;SDS011;63609;49.992;14.512;2024-03-08T02:22:28;42.88;;;16.75;;
75038;SDS011;63609;49.992;14.512;2024-03-08T02:24:56;37.60;;;16.60;;
75038;SDS011;63609;49.992;14.512;2024-03-08T02:27:24;41.33;;;16.98;;
75038;SDS011;63609;49.992;14.512;2024-03-08T02:29:56;45.70;;;18.50;;
75038;SDS011;63609;49.992;14.512;2024-03-08T02:32:23;42.90;;;17.70;;
75038;SDS011;63609;49.992;14.512;2024-03-08T02:34:51;39.28;;;17.27;;
75038;SDS011;63609;49.992;14.512;2024-03-08T02:37:22;43.45;;;18.25;;
75038;SDS011;63609;49.992;14.512;2024-03-08T02:42:15;33.97;;;15.00;;
75038;SDS011;63609;49.992;14.512;2024-03-08T02:44:43;36.03;;;15.45;;
75038;SDS011;63609;49.992;14.512;2024-03-08T02:47:10;45.58;;;16.65;;
75038;SDS011;63609;49.992;14.512;2024-03-08T02:52:04;38.75;;;13.93;;
75038;SDS011;63609;49.992;14.512;2024-03-08T02:54:31;36.88;;;15.90;;
75038;SDS011;63609;49.992;14.512;2024-03-08T02:59:25;43.00;;;15.98;;
75038;SDS011;63609;49.992;14.512;2024-03-08T03:01:51;35.53;;;16.33;;
75038;SDS011;63609;49.992;14.512;2024-03-08T03:04:19;41.22;;;16.77;;
75038;SDS011;63609;49.992;14.512;2024-03-08T03:09:13;39.05;;;16.45;;
75038;SDS011;63609;49.992;14.512;2024-03-08T03:11:44;40.30;;;16.50;;
75038;SDS011;63609;49.992;14.512;2024-03-08T03:14:11;43.22;;;16.13;;
75038;SDS011;63609;49.992;14.512;2024-03-08T03:16:38;40.22;;;17.55;;
75038;SDS011;63609;49.992;14.512;2024-03-08T03:19:04;44.38;;;18.38;;
75038;SDS011;63609;49.992;14.512;2024-03-08T03:21:32;49.92;;;18.92;;
75038;SDS011;63609;49.992;14.512;2024-03-08T03:23:59;43.03;;;16.95;;
75038;SDS011;63609;49.992;14.512;2024-03-08T03:26:26;45.95;;;17.10;;
75038;SDS011;63609;49.992;14.512;2024-03-08T03:31:20;39.30;;;15.75;;
75038;SDS011;63609;49.992;14.512;2024-03-08T03:33:50;42.40;;;16.67;;
75038;SDS011;63609;49.992;14.512;2024-03-08T03:36:19;41.95;;;16.98;;
75038;SDS011;63609;49.992;14.512;2024-03-08T03:41:13;37.78;;;15.27;;
75038;SDS011;63609;49.992;14.512;2024-03-08T03:43:42;44.00;;;18.27;;
75038;SDS011;63609;49.992;14.512;2024-03-08T03:46:09;42.90;;;17.65;;
75038;SDS011;63609;49.992;14.512;2024-03-08T03:48:37;53.17;;;19.75;;
75038;SDS011;63609;49.992;14.512;2024-03-08T03:51:04;46.38;;;18.02;;
75038;SDS011;63609;49.992;14.512;2024-03-08T03:53:31;46.85;;;18.52;;
75038;SDS011;63609;49.992;14.512;2024-03-08T03:55:57;41.75;;;18.05;;
75038;SDS011;63609;49.992;14.512;2024-03-08T03:58:26;43.50;;;17.75;;
75038;SDS011;63609;49.992;14.512;2024-03-08T04:00:53;40.97;;;17.52;;
75038;SDS011;63609;49.992;14.512;2024-03-08T04:03:20;46.03;;;18.48;;
75038;SDS011;63609;49.992;14.512;2024-03-08T04:05:48;44.10;;;17.48;;
75038;SDS011;63609;49.992;14.512;2024-03-08T04:08:15;40.42;;;17.80;;
75038;SDS011;63609;49.992;14.512;2024-03-08T04:10:50;45.78;;;16.92;;
75038;SDS011;63609;49.992;14.512;2024-03-08T04:13:17;50.13;;;20.05;;
75038;SDS011;63609;49.992;14.512;2024-03-08T04:15:45;45.08;;;18.00;;
75038;SDS011;63609;49.992;14.512;2024-03-08T04:18:15;47.25;;;17.50;;
75038;SDS011;63609;49.992;14.512;2024-03-08T04:20:46;40.38;;;16.08;;
75038;SDS011;63609;49.992;14.512;2024-03-08T04:23:13;40.28;;;16.90;;
75038;SDS011;63609;49.992;14.512;2024-03-08T04:25:41;43.13;;;17.15;;
75038;SDS011;63609;49.992;14.512;2024-03-08T04:28:09;43.53;;;17.10;;
75038;SDS011;63609;49.992;14.512;2024-03-08T04:30:38;47.05;;;18.15;;
75038;SDS011;63609;49.992;14.512;2024-03-08T04:33:09;50.10;;;18.08;;
75038;SDS011;63609;49.992;14.512;2024-03-08T04:38:03;36.33;;;15.25;;
75038;SDS011;63609;49.992;14.512;2024-03-08T04:40:32;44.88;;;17.23;;
75038;SDS011;63609;49.992;14.512;2024-03-08T04:45:25;40.45;;;14.73;;
75038;SDS011;63609;49.992;14.512;2024-03-08T04:47:52;43.83;;;16.20;;
75038;SDS011;63609;49.992;14.512;2024-03-08T04:52:46;37.22;;;14.85;;
75038;SDS011;63609;49.992;14.512;2024-03-08T04:55:12;40.95;;;16.02;;
75038;SDS011;63609;49.992;14.512;2024-03-08T04:57:39;45.72;;;18.08;;
75038;SDS011;63609;49.992;14.512;2024-03-08T05:00:08;45.25;;;17.27;;
75038;SDS011;63609;49.992;14.512;2024-03-08T05:02:38;41.67;;;16.90;;
75038;SDS011;63609;49.992;14.512;2024-03-08T05:05:05;44.42;;;16.65;;
75038;SDS011;63609;49.992;14.512;2024-03-08T05:07:32;55.08;;;18.85;;
75038;SDS011;63609;49.992;14.512;2024-03-08T05:09:59;39.53;;;15.48;;
75038;SDS011;63609;49.992;14.512;2024-03-08T05:12:26;41.78;;;17.10;;
75038;SDS011;63609;49.992;14.512;2024-03-08T05:17:20;42.90;;;15.68;;
75038;SDS011;63609;49.992;14.512;2024-03-08T05:22:14;34.83;;;14.32;;
75038;SDS011;63609;49.992;14.512;2024-03-08T05:24:41;42.30;;;16.42;;
75038;SDS011;63609;49.992;14.512;2024-03-08T05:27:09;45.20;;;17.90;;
75038;SDS011;63609;49.992;14.512;2024-03-08T05:29:36;38.15;;;15.07;;
75038;SDS011;63609;49.992;14.512;2024-03-08T05:32:03;37.10;;;15.50;;
75038;SDS011;63609;49.992;14.512;2024-03-08T05:34:30;42.17;;;16.65;;
75038;SDS011;63609;49.992;14.512;2024-03-08T05:36:57;43.33;;;17.08;;
75038;SDS011;63609;49.992;14.512;2024-03-08T05:39:25;41.20;;;15.95;;
75038;SDS011;63609;49.992;14.512;2024-03-08T05:41:52;50.20;;;17.77;;
75038;SDS011;63609;49.992;14.512;2024-03-08T05:44:19;43.85;;;17.98;;
75038;SDS011;63609;49.992;14.512;2024-03-08T05:46:46;46.75;;;19.15;;
75038;SDS011;63609;49.992;14.512;2024-03-08T05:49:13;44.60;;;17.65;;
75038;SDS011;63609;49.992;14.512;2024-03-08T05:51:41;45.03;;;17.40;;
75038;SDS011;63609;49.992;14.512;2024-03-08T05:54:09;49.58;;;18.88;;
75038;SDS011;63609;49.992;14.512;2024-03-08T05:56:38;42.35;;;17.02;;
75038;SDS011;63609;49.992;14.512;2024-03-08T05:59:11;46.15;;;18.83;;
75038;SDS011;63609;49.992;14.512;2024-03-08T06:01:38;42.83;;;17.50;;
75038;SDS011;63609;49.992;14.512;2024-03-08T06:04:09;49.78;;;18.23;;
75038;SDS011;63609;49.992;14.512;2024-03-08T06:06:38;43.67;;;16.65;;
75038;SDS011;63609;49.992;14.512;2024-03-08T06:09:07;51.30;;;18.70;;
75038;SDS011;63609;49.992;14.512;2024-03-08T06:11:44;42.60;;;17.80;;
75038;SDS011;63609;49.992;14.512;2024-03-08T06:14:11;43.35;;;18.02;;
75038;SDS011;63609;49.992;14.512;2024-03-08T06:16:38;46.10;;;17.63;;
75038;SDS011;63609;49.992;14.512;2024-03-08T06:19:05;45.47;;;17.85;;
75038;SDS011;63609;49.992;14.512;2024-03-08T06:21:33;43.63;;;17.77;;
75038;SDS011;63609;49.992;14.512;2024-03-08T06:24:00;48.15;;;17.88;;
75038;SDS011;63609;49.992;14.512;2024-03-08T06:26:27;43.08;;;18.00;;
75038;SDS011;63609;49.992;14.512;2024-03-08T06:28:58;43.78;;;18.23;;
75038;SDS011;63609;49.992;14.512;2024-03-08T06:31:26;44.95;;;17.35;;
75038;SDS011;63609;49.992;14.512;2024-03-08T06:33:53;45.88;;;17.42;;
75038;SDS011;63609;49.992;14.512;2024-03-08T06:36:23;48.72;;;18.98;;
75038;SDS011;63609;49.992;14.512;2024-03-08T06:38:51;44.40;;;18.27;;
75038;SDS011;63609;49.992;14.512;2024-03-08T06:41:19;43.15;;;19.45;;
75038;SDS011;63609;49.992;14.512;2024-03-08T06:46:14;45.78;;;17.40;;
75038;SDS011;63609;49.992;14.512;2024-03-08T06:48:41;46.42;;;17.33;;
75038;SDS011;63609;49.992;14.512;2024-03-08T06:51:09;53.13;;;17.58;;
75038;SDS011;63609;49.992;14.512;2024-03-08T06:53:38;46.50;;;19.88;;
75038;SDS011;63609;49.992;14.512;2024-03-08T06:56:05;48.15;;;17.52;;
75038;SDS011;63609;49.992;14.512;2024-03-08T06:58:35;46.08;;;18.33;;
75038;SDS011;63609;49.992;14.512;2024-03-08T07:01:01;46.80;;;17.88;;
75038;SDS011;63609;49.992;14.512;2024-03-08T07:03:31;45.17;;;17.67;;
75038;SDS011;63609;49.992;14.512;2024-03-08T07:05:59;44.85;;;17.83;;
75038;SDS011;63609;49.992;14.512;2024-03-08T07:08:30;46.30;;;17.20;;
75038;SDS011;63609;49.992;14.512;2024-03-08T07:10:57;43.63;;;18.10;;
75038;SDS011;63609;49.992;14.512;2024-03-08T07:13:26;41.60;;;16.77;;
75038;SDS011;63609;49.992;14.512;2024-03-08T07:15:55;39.67;;;15.88;;
75038;SDS011;63609;49.992;14.512;2024-03-08T07:18:22;37.80;;;15.57;;
75038;SDS011;63609;49.992;14.512;2024-03-08T07:20:50;34.08;;;13.77;;
75038;SDS011;63609;49.992;14.512;2024-03-08T07:23:17;38.17;;;15.15;;
75038;SDS011;63609;49.992;14.512;2024-03-08T07:26:03;33.22;;;14.13;;
75038;SDS011;63609;49.992;14.512;2024-03-08T07:28:30;31.35;;;13.85;;
75038;SDS011;63609;49.992;14.512;2024-03-08T07:30:58;29.60;;;12.30;;
75038;SDS011;63609;49.992;14.512;2024-03-08T07:33:44;30.55;;;12.20;;
75038;SDS011;63609;49.992;14.512;2024-03-08T07:36:11;31.30;;;13.20;;
75038;SDS011;63609;49.992;14.512;2024-03-08T07:38:38;30.90;;;13.68;;
75038;SDS011;63609;49.992;14.512;2024-03-08T07:41:05;33.38;;;11.85;;
75038;SDS011;63609;49.992;14.512;2024-03-08T07:45:59;28.27;;;11.77;;
75038;SDS011;63609;49.992;14.512;2024-03-08T07:48:26;30.35;;;12.05;;
75038;SDS011;63609;49.992;14.512;2024-03-08T07:50:53;26.58;;;10.48;;
75038;SDS011;63609;49.992;14.512;2024-03-08T07:53:20;30.45;;;13.02;;
75038;SDS011;63609;49.992;14.512;2024-03-08T07:55:47;28.88;;;13.35;;
75038;SDS011;63609;49.992;14.512;2024-03-08T07:58:14;28.27;;;11.20;;
75038;SDS011;63609;49.992;14.512;2024-03-08T08:00:41;19.40;;;9.82;;
75038;SDS011;63609;49.992;14.512;2024-03-08T08:03:09;25.85;;;11.25;;
75038;SDS011;63609;49.992;14.512;2024-03-08T08:05:37;26.60;;;11.02;;
75038;SDS011;63609;49.992;14.512;2024-03-08T08:08:07;26.63;;;11.25;;
75038;SDS011;63609;49.992;14.512;2024-03-08T08:10:37;26.70;;;11.40;;
75038;SDS011;63609;49.992;14.512;2024-03-08T08:13:05;26.70;;;11.02;;
75038;SDS011;63609;49.992;14.512;2024-03-08T08:18:01;20.85;;;9.82;;
75038;SDS011;63609;49.992;14.512;2024-03-08T08:20:29;21.58;;;9.55;;
75038;SDS011;63609;49.992;14.512;2024-03-08T08:25:23;22.25;;;8.98;;
75038;SDS011;63609;49.992;14.512;2024-03-08T08:27:51;20.92;;;10.40;;
75038;SDS011;63609;49.992;14.512;2024-03-08T08:30:20;24.25;;;10.23;;
75038;SDS011;63609;49.992;14.512;2024-03-08T08:32:47;27.48;;;10.20;;
75038;SDS011;63609;49.992;14.512;2024-03-08T08:35:15;28.98;;;10.35;;
75038;SDS011;63609;49.992;14.512;2024-03-08T08:37:43;21.38;;;10.02;;
75038;SDS011;63609;49.992;14.512;2024-03-08T08:40:11;23.42;;;10.02;;
75038;SDS011;63609;49.992;14.512;2024-03-08T08:42:42;19.63;;;9.40;;
75038;SDS011;63609;49.992;14.512;2024-03-08T08:45:09;20.90;;;10.35;;
75038;SDS011;63609;49.992;14.512;2024-03-08T08:47:46;20.15;;;10.05;;
75038;SDS011;63609;49.992;14.512;2024-03-08T08:50:14;25.10;;;9.93;;
75038;SDS011;63609;49.992;14.512;2024-03-08T08:52:44;28.38;;;10.43;;
75038;SDS011;63609;49.992;14.512;2024-03-08T08:55:11;23.58;;;9.52;;
75038;SDS011;63609;49.992;14.512;2024-03-08T08:57:41;17.42;;;8.63;;
75038;SDS011;63609;49.992;14.512;2024-03-08T09:00:09;18.65;;;10.02;;
75038;SDS011;63609;49.992;14.512;2024-03-08T09:05:09;20.35;;;9.38;;
75038;SDS011;63609;49.992;14.512;2024-03-08T09:07:36;22.50;;;9.90;;
75038;SDS011;63609;49.992;14.512;2024-03-08T09:10:06;20.83;;;9.90;;
75038;SDS011;63609;49.992;14.512;2024-03-08T09:12:39;22.33;;;9.68;;
75038;SDS011;63609;49.992;14.512;2024-03-08T09:15:06;20.85;;;10.05;;
75038;SDS011;63609;49.992;14.512;2024-03-08T09:17:40;21.38;;;9.48;;
75038;SDS011;63609;49.992;14.512;2024-03-08T09:20:09;24.00;;;9.50;;
75038;SDS011;63609;49.992;14.512;2024-03-08T09:22:37;21.63;;;9.65;;
75038;SDS011;63609;49.992;14.512;2024-03-08T09:25:04;20.02;;;9.85;;
75038;SDS011;63609;49.992;14.512;2024-03-08T09:27:32;20.60;;;10.02;;
75038;SDS011;63609;49.992;14.512;2024-03-08T09:30:04;20.13;;;9.15;;
75038;SDS011;63609;49.992;14.512;2024-03-08T09:32:34;18.23;;;9.40;;
75038;SDS011;63609;49.992;14.512;2024-03-08T09:35:01;23.05;;;8.85;;
75038;SDS011;63609;49.992;14.512;2024-03-08T09:37:29;22.02;;;10.80;;
75038;SDS011;63609;49.992;14.512;2024-03-08T09:39:56;19.80;;;9.05;;
75038;SDS011;63609;49.992;14.512;2024-03-08T09:42:24;20.48;;;9.75;;
75038;SDS011;63609;49.992;14.512;2024-03-08T09:44:51;22.95;;;10.35;;
75038;SDS011;63609;49.992;14.512;2024-03-08T09:47:18;19.00;;;10.07;;
75038;SDS011;63609;49.992;14.512;2024-03-08T09:49:49;22.20;;;10.52;;
75038;SDS011;63609;49.992;14.512;2024-03-08T09:52:16;22.13;;;10.23;;
75038;SDS011;63609;49.992;14.512;2024-03-08T09:54:43;18.60;;;8.90;;
75038;SDS011;63609;49.992;14.512;2024-03-08T09:57:11;24.30;;;11.13;;
75038;SDS011;63609;49.992;14.512;2024-03-08T09:59:38;26.27;;;10.55;;
75038;SDS011;63609;49.992;14.512;2024-03-08T10:04:32;21.13;;;9.45;;
75038;SDS011;63609;49.992;14.512;2024-03-08T10:07:00;21.27;;;8.93;;
75038;SDS011;63609;49.992;14.512;2024-03-08T10:09:28;21.17;;;10.02;;
75038;SDS011;63609;49.992;14.512;2024-03-08T10:11:58;18.35;;;8.55;;
75038;SDS011;63609;49.992;14.512;2024-03-08T10:14:25;23.98;;;9.88;;
75038;SDS011;63609;49.992;14.512;2024-03-08T10:16:55;20.30;;;10.27;;
75038;SDS011;63609;49.992;14.512;2024-03-08T10:19:27;21.08;;;10.00;;
75038;SDS011;63609;49.992;14.512;2024-03-08T10:21:57;20.10;;;9.90;;
75038;SDS011;63609;49.992;14.512;2024-03-08T10:24:25;18.30;;;9.63;;
75038;SDS011;63609;49.992;14.512;2024-03-08T10:27:01;22.88;;;10.52;;
75038;SDS011;63609;49.992;14.512;2024-03-08T10:29:31;20.45;;;10.07;;
75038;SDS011;63609;49.992;14.512;2024-03-08T10:31:59;18.05;;;8.88;;
75038;SDS011;63609;49.992;14.512;2024-03-08T10:34:28;19.67;;;9.60;;
75038;SDS011;63609;49.992;14.512;2024-03-08T10:36:57;22.73;;;9.70;;
75038;SDS011;63609;49.992;14.512;2024-03-08T10:39:35;18.73;;;9.38;;
75038;SDS011;63609;49.992;14.512;2024-03-08T10:42:04;21.23;;;9.75;;
75038;SDS011;63609;49.992;14.512;2024-03-08T10:44:48;19.60;;;10.07;;
75038;SDS011;63609;49.992;14.512;2024-03-08T10:47:26;21.98;;;9.30;;
75038;SDS011;63609;49.992;14.512;2024-03-08T10:50:19;20.42;;;9.60;;
75038;SDS011;63609;49.992;14.512;2024-03-08T10:52:49;20.10;;;9.55;;
75038;SDS011;63609;49.992;14.512;2024-03-08T10:55:18;18.90;;;9.43;;
75038;SDS011;63609;49.992;14.512;2024-03-08T10:57:47;17.50;;;8.20;;
75038;SDS011;63609;49.992;14.512;2024-03-08T11:00:14;20.38;;;8.35;;
75038;SDS011;63609;49.992;14.512;2024-03-08T11:02:45;16.90;;;8.20;;
75038;SDS011;63609;49.992;14.512;2024-03-08T11:10:49;19.20;;;8.35;;
75038;SDS011;63609;49.992;14.512;2024-03-08T11:13:42;16.85;;;7.97;;
75038;SDS011;63609;49.992;14.512;2024-03-08T11:16:36;16.75;;;7.40;;
75038;SDS011;63609;49.992;14.512;2024-03-08T11:19:00;18.13;;;8.02;;
75038;SDS011;63609;49.992;14.512;2024-03-08T11:21:56;15.43;;;8.00;;
75038;SDS011;63609;49.992;14.512;2024-03-08T11:24:27;17.42;;;8.45;;
75038;SDS011;63609;49.992;14.512;2024-03-08T11:27:04;17.13;;;7.88;;
75038;SDS011;63609;49.992;14.512;2024-03-08T11:34:40;15.55;;;7.88;;
75038;SDS011;63609;49.992;14.512;2024-03-08T11:37:13;14.30;;;7.22;;
75038;SDS011;63609;49.992;14.512;2024-03-08T11:39:48;15.05;;;7.22;;
75038;SDS011;63609;49.992;14.512;2024-03-08T11:42:25;14.95;;;7.20;;
75038;SDS011;63609;49.992;14.512;2024-03-08T11:44:55;18.58;;;7.30;;
75038;SDS011;63609;49.992;14.512;2024-03-08T11:47:22;10.63;;;5.35;;
75038;SDS011;63609;49.992;14.512;2024-03-08T11:49:50;11.90;;;6.40;;
75038;SDS011;63609;49.992;14.512;2024-03-08T11:52:18;13.32;;;6.28;;
75038;SDS011;63609;49.992;14.512;2024-03-08T11:54:51;11.85;;;5.75;;
75038;SDS011;63609;49.992;14.512;2024-03-08T11:57:25;8.82;;;5.38;;
75038;SDS011;63609;49.992;14.512;2024-03-08T11:59:52;10.75;;;5.22;;
75038;SDS011;63609;49.992;14.512;2024-03-08T12:02:23;9.55;;;6.05;;
75038;SDS011;63609;49.992;14.512;2024-03-08T12:04:58;10.02;;;6.15;;
75038;SDS011;63609;49.992;14.512;2024-03-08T12:07:39;11.13;;;5.80;;
75038;SDS011;63609;49.992;14.512;2024-03-08T12:10:16;13.00;;;6.10;;
75038;SDS011;63609;49.992;14.512;2024-03-08T12:12:50;15.85;;;6.75;;
75038;SDS011;63609;49.992;14.512;2024-03-08T12:15:19;10.90;;;5.90;;
75038;SDS011;63609;49.992;14.512;2024-03-08T12:17:48;11.38;;;5.78;;
75038;SDS011;63609;49.992;14.512;2024-03-08T12:20:20;11.60;;;5.47;;
75038;SDS011;63609;49.992;14.512;2024-03-08T12:22:49;9.90;;;5.20;;
75038;SDS011;63609;49.992;14.512;2024-03-08T12:25:20;8.13;;;4.30;;
75038;SDS011;63609;49.992;14.512;2024-03-08T12:27:48;9.10;;;3.83;;
75038;SDS011;63609;49.992;14.512;2024-03-08T12:30:25;8.50;;;4.85;;
75038;SDS011;63609;49.992;14.512;2024-03-08T12:35:24;8.27;;;3.72;;
75038;SDS011;63609;49.992;14.512;2024-03-08T12:37:53;8.13;;;3.97;;
75038;SDS011;63609;49.992;14.512;2024-03-08T12:40:26;10.25;;;4.70;;
75038;SDS011;63609;49.992;14.512;2024-03-08T12:42:55;8.27;;;3.90;;
75038;SDS011;63609;49.992;14.512;2024-03-08T12:45:23;8.27;;;4.40;;
75038;SDS011;63609;49.992;14.512;2024-03-08T12:47:51;10.15;;;4.72;;
75038;SDS011;63609;49.992;14.512;2024-03-08T12:50:18;7.50;;;3.80;;
75038;SDS011;63609;49.992;14.512;2024-03-08T12:52:45;9.75;;;5.03;;
75038;SDS011;63609;49.992;14.512;2024-03-08T12:55:14;10.40;;;4.88;;
75038;SDS011;63609;49.992;14.512;2024-03-08T12:57:43;10.10;;;5.00;;
75038;SDS011;63609;49.992;14.512;2024-03-08T13:00:10;10.80;;;5.38;;
75038;SDS011;63609;49.992;14.512;2024-03-08T13:02:46;12.93;;;5.70;;
75038;SDS011;63609;49.992;14.512;2024-03-08T13:05:13;10.27;;;4.85;;
75038;SDS011;63609;49.992;14.512;2024-03-08T13:07:41;9.63;;;4.72;;
75038;SDS011;63609;49.992;14.512;2024-03-08T13:10:13;11.57;;;5.30;;
75038;SDS011;63609;49.992;14.512;2024-03-08T13:12:44;11.13;;;6.22;;
75038;SDS011;63609;49.992;14.512;2024-03-08T13:15:11;8.73;;;4.78;;
75038;SDS011;63609;49.992;14.512;2024-03-08T13:17:49;10.50;;;5.25;;
75038;SDS011;63609;49.992;14.512;2024-03-08T13:20:16;12.90;;;5.47;;
75038;SDS011;63609;49.992;14.512;2024-03-08T13:22:56;10.00;;;5.20;;
75038;SDS011;63609;49.992;14.512;2024-03-08T13:25:25;11.95;;;6.07;;
75038;SDS011;63609;49.992;14.512;2024-03-08T13:27:53;11.25;;;5.63;;
75038;SDS011;63609;49.992;14.512;2024-03-08T13:30:22;11.00;;;5.90;;
75038;SDS011;63609;49.992;14.512;2024-03-08T13:32:53;11.73;;;6.38;;
75038;SDS011;63609;49.992;14.512;2024-03-08T13:35:23;10.88;;;5.80;;
75038;SDS011;63609;49.992;14.512;2024-03-08T13:37:54;11.25;;;5.63;;
75038;SDS011;63609;49.992;14.512;2024-03-08T13:40:23;12.65;;;6.15;;
75038;SDS011;63609;49.992;14.512;2024-03-08T13:42:51;10.57;;;4.93;;
75038;SDS011;63609;49.992;14.512;2024-03-08T13:45:18;13.10;;;5.15;;
75038;SDS011;63609;49.992;14.512;2024-03-08T13:47:48;13.23;;;5.93;;
75038;SDS011;63609;49.992;14.512;2024-03-08T13:50:18;11.90;;;5.40;;
75038;SDS011;63609;49.992;14.512;2024-03-08T13:52:49;12.00;;;5.18;;
75038;SDS011;63609;49.992;14.512;2024-03-08T13:55:20;10.82;;;5.22;;
75038;SDS011;63609;49.992;14.512;2024-03-08T13:57:48;11.38;;;5.05;;
75038;SDS011;63609;49.992;14.512;2024-03-08T14:00:18;8.85;;;4.72;;
75038;SDS011;63609;49.992;14.512;2024-03-08T14:02:51;7.95;;;4.63;;
75038;SDS011;63609;49.992;14.512;2024-03-08T14:05:18;11.50;;;5.93;;
75038;SDS011;63609;49.992;14.512;2024-03-08T14:07:46;10.27;;;5.30;;
75038;SDS011;63609;49.992;14.512;2024-03-08T14:10:16;13.15;;;7.00;;
75038;SDS011;63609;49.992;14.512;2024-03-08T14:15:18;15.07;;;6.10;;
75038;SDS011;63609;49.992;14.512;2024-03-08T14:17:52;11.20;;;5.40;;
75038;SDS011;63609;49.992;14.512;2024-03-08T14:22:50;12.50;;;6.03;;
75038;SDS011;63609;49.992;14.512;2024-03-08T14:25:18;11.75;;;5.85;;
75038;SDS011;63609;49.992;14.512;2024-03-08T14:27:46;15.13;;;6.43;;
75038;SDS011;63609;49.992;14.512;2024-03-08T14:30:13;10.15;;;5.07;;
75038;SDS011;63609;49.992;14.512;2024-03-08T14:32:45;10.95;;;5.07;;
75038;SDS011;63609;49.992;14.512;2024-03-08T14:35:14;12.93;;;5.63;;
75038;SDS011;63609;49.992;14.512;2024-03-08T14:37:40;10.10;;;5.13;;
75038;SDS011;63609;49.992;14.512;2024-03-08T14:40:10;11.82;;;5.78;;
75038;SDS011;63609;49.992;14.512;2024-03-08T14:42:37;10.98;;;5.50;;
75038;SDS011;63609;49.992;14.512;2024-03-08T14:45:04;12.80;;;6.40;;
75038;SDS011;63609;49.992;14.512;2024-03-08T14:47:32;11.88;;;5.82;;
75038;SDS011;63609;49.992;14.512;2024-03-08T14:50:00;9.15;;;5.57;;
75038;SDS011;63609;49.992;14.512;2024-03-08T14:52:28;10.50;;;4.50;;
75038;SDS011;63609;49.992;14.512;2024-03-08T14:54:55;10.95;;;5.15;;
75038;SDS011;63609;49.992;14.512;2024-03-08T14:57:23;8.82;;;4.43;;
75038;SDS011;63609;49.992;14.512;2024-03-08T14:59:50;9.75;;;4.70;;
75038;SDS011;63609;49.992;14.512;2024-03-08T15:02:17;8.88;;;4.85;;
75038;SDS011;63609;49.992;14.512;2024-03-08T15:04:48;11.68;;;5.05;;
75038;SDS011;63609;49.992;14.512;2024-03-08T15:07:24;9.25;;;4.75;;
75038;SDS011;63609;49.992;14.512;2024-03-08T15:12:24;9.75;;;4.80;;
75038;SDS011;63609;49.992;14.512;2024-03-08T15:14:53;9.75;;;5.55;;
75038;SDS011;63609;49.992;14.512;2024-03-08T15:17:24;10.88;;;5.45;;
75038;SDS011;63609;49.992;14.512;2024-03-08T15:19:51;8.50;;;5.03;;
75038;SDS011;63609;49.992;14.512;2024-03-08T15:22:21;13.63;;;5.65;;
75038;SDS011;63609;49.992;14.512;2024-03-08T15:24:50;11.65;;;5.03;;
75038;SDS011;63609;49.992;14.512;2024-03-08T15:27:18;11.45;;;5.20;;
75038;SDS011;63609;49.992;14.512;2024-03-08T15:29:45;10.00;;;4.82;;
75038;SDS011;63609;49.992;14.512;2024-03-08T15:32:15;11.40;;;5.00;;
75038;SDS011;63609;49.992;14.512;2024-03-08T15:34:49;12.15;;;5.38;;
75038;SDS011;63609;49.992;14.512;2024-03-08T15:37:16;11.27;;;4.00;;